createdAt,value
2018-02-22T00:01:40.106Z,45.00
2018-02-22T00:04:10.309Z,45.10
2018-02-22T00:06:38.563Z,45.00
2018-02-22T00:09:06.829Z,45.20
2018-02-22T00:11:35.082Z,45.00
2018-02-22T00:14:03.337Z,45.00
2018-02-22T00:16:31.961Z,45.20
2018-02-22T00:19:00.209Z,45.20
2018-02-22T00:21:28.461Z,45.40
2018-02-22T00:23:57.493Z,45.60
2018-02-22T00:26:25.750Z,45.60
2018-02-22T00:28:54.761Z,45.90
2018-02-22T00:31:23.039Z,45.90
2018-02-22T00:33:51.291Z,45.40
2018-02-22T00:36:19.538Z,45.40
2018-02-22T00:38:47.867Z,45.10
2018-02-22T00:41:16.118Z,45.40
2018-02-22T00:43:44.371Z,45.30
2018-02-22T00:46:12.826Z,45.70
2018-02-22T00:48:41.082Z,44.80
2018-02-22T00:51:09.339Z,45.40
2018-02-22T00:53:37.615Z,45.30
2018-02-22T00:56:06.630Z,45.40
2018-02-22T00:58:34.995Z,45.40
2018-02-22T01:01:03.725Z,45.90
2018-02-22T01:03:31.974Z,46.00
2018-02-22T01:06:00.229Z,45.80
2018-02-22T01:08:29.739Z,45.20
2018-02-22T01:10:58.754Z,45.50
2018-02-22T01:13:27.011Z,45.40
2018-02-22T01:15:55.288Z,45.90
2018-02-22T01:18:23.538Z,46.00
2018-02-22T01:20:51.790Z,45.90
2018-02-22T01:23:20.475Z,46.20
2018-02-22T01:25:48.711Z,45.30
2018-02-22T01:28:16.963Z,46.00
2018-02-22T01:30:45.239Z,45.70
2018-02-22T01:33:13.495Z,45.30
2018-02-22T01:35:41.742Z,46.00
2018-02-22T01:38:10.015Z,45.50
2018-02-22T01:40:38.266Z,46.10
2018-02-22T01:43:06.518Z,45.90
2018-02-22T01:45:34.847Z,46.40
2018-02-22T01:48:03.226Z,45.70
2018-02-22T01:50:31.486Z,45.90
2018-02-22T01:52:59.762Z,46.20
2018-02-22T01:55:28.019Z,46.50
2018-02-22T01:57:57.026Z,46.40
2018-02-22T02:00:25.315Z,46.40
2018-02-22T02:02:53.563Z,46.30
2018-02-22T02:05:21.813Z,46.10
2018-02-22T02:07:50.295Z,46.80
2018-02-22T02:10:19.322Z,46.70
2018-02-22T02:12:47.579Z,46.70
2018-02-22T02:15:15.854Z,47.00
2018-02-22T02:17:44.323Z,45.80
2018-02-22T02:20:12.576Z,45.70
2018-02-22T02:22:40.851Z,46.60
2018-02-22T02:25:09.103Z,46.10
2018-02-22T02:27:37.354Z,46.50
2018-02-22T02:30:05.991Z,46.40
2018-02-22T02:32:34.239Z,46.70
2018-02-22T02:35:02.487Z,46.30
2018-02-22T02:37:30.764Z,46.60
2018-02-22T02:39:59.786Z,46.60
2018-02-22T02:42:28.034Z,46.60
2018-02-22T02:44:56.312Z,46.90
2018-02-22T02:47:24.565Z,46.80
2018-02-22T02:49:53.148Z,46.20
2018-02-22T02:52:21.703Z,46.10
2018-02-22T02:54:50.039Z,46.80
2018-02-22T02:57:19.348Z,46.50
2018-02-22T02:59:49.555Z,46.70
2018-02-22T03:02:18.572Z,46.90
2018-02-22T03:04:46.819Z,46.90
2018-02-22T03:07:15.108Z,46.70
2018-02-22T03:09:43.361Z,46.90
2018-02-22T03:12:11.607Z,46.50
2018-02-22T03:14:40.174Z,46.30
2018-02-22T03:17:08.431Z,46.80
2018-02-22T03:19:36.675Z,47.10
2018-02-22T03:22:04.952Z,46.80
2018-02-22T03:24:33.202Z,46.70
2018-02-22T03:27:01.451Z,47.40
2018-02-22T03:29:29.726Z,46.60
2018-02-22T03:31:58.090Z,47.20
2018-02-22T03:34:26.288Z,47.30
2018-02-22T03:36:54.627Z,46.70
2018-02-22T03:39:23.646Z,46.50
2018-02-22T03:41:51.898Z,46.50
2018-02-22T03:44:20.174Z,46.70
2018-02-22T03:46:48.434Z,47.00
2018-02-22T03:49:16.689Z,47.10
2018-02-22T03:51:45.554Z,46.80
2018-02-22T03:54:13.803Z,47.10
2018-02-22T03:56:42.058Z,47.00
2018-02-22T03:59:10.718Z,47.30
2018-02-22T04:01:38.972Z,47.20
2018-02-22T04:04:07.214Z,47.00
2018-02-22T04:06:35.495Z,47.50
2018-02-22T04:09:04.516Z,47.30
2018-02-22T04:11:32.766Z,47.30
2018-02-22T04:14:01.038Z,47.10
2018-02-22T04:16:29.286Z,47.50
2018-02-22T04:18:57.534Z,47.20
2018-02-22T04:21:26.103Z,47.00
2018-02-22T04:23:54.350Z,47.00
2018-02-22T04:26:22.606Z,46.90
2018-02-22T04:28:50.902Z,46.90
2018-02-22T04:31:19.938Z,46.90
2018-02-22T04:33:48.174Z,46.90
2018-02-22T04:36:16.450Z,47.10
2018-02-22T04:38:44.702Z,47.20
2018-02-22T04:41:12.950Z,47.60
2018-02-22T04:43:41.544Z,47.80
2018-02-22T04:46:09.796Z,47.60
2018-02-22T04:48:38.048Z,47.70
2018-02-22T04:51:06.682Z,47.20
2018-02-22T04:53:35.315Z,47.40
2018-02-22T04:56:04.334Z,47.10
2018-02-22T04:58:32.609Z,47.10
2018-02-22T05:01:01.035Z,47.40
2018-02-22T05:03:29.300Z,47.70
2018-02-22T05:05:57.876Z,47.20
2018-02-22T05:08:26.122Z,47.40
2018-02-22T05:10:54.376Z,47.20
2018-02-22T05:13:22.659Z,47.40
2018-02-22T05:15:51.666Z,47.50
2018-02-22T05:18:19.914Z,47.40
2018-02-22T05:20:48.959Z,47.20
2018-02-22T05:23:17.215Z,47.20
2018-02-22T05:25:45.466Z,47.10
2018-02-22T05:28:14.652Z,47.20
2018-02-22T05:30:43.083Z,47.20
2018-02-22T05:33:11.330Z,47.40
2018-02-22T05:35:39.606Z,47.30
2018-02-22T05:38:08.626Z,47.80
2018-02-22T05:40:36.877Z,47.80
2018-02-22T05:43:05.355Z,47.20
2018-02-22T05:45:34.374Z,47.30
2018-02-22T05:48:02.627Z,47.20
2018-02-22T05:50:31.123Z,47.70
2018-02-22T05:52:59.375Z,47.80
2018-02-22T05:55:27.749Z,47.20
2018-02-22T05:57:56.022Z,47.30
2018-02-22T06:00:24.270Z,47.20
2018-02-22T06:02:52.543Z,47.40
2018-02-22T06:05:20.823Z,48.00
2018-02-22T06:07:49.092Z,47.50
2018-02-22T06:10:17.330Z,47.50
2018-02-22T06:12:45.958Z,47.40
2018-02-22T06:15:14.208Z,47.50
2018-02-22T06:17:42.458Z,47.40
2018-02-22T06:20:10.743Z,47.10
2018-02-22T06:22:39.754Z,47.30
2018-02-22T06:25:08.006Z,47.30
2018-02-22T06:27:36.288Z,48.20
2018-02-22T06:30:04.541Z,47.50
2018-02-22T06:32:32.795Z,48.20
2018-02-22T06:35:01.375Z,47.90
2018-02-22T06:37:29.619Z,47.60
2018-02-22T06:39:57.879Z,47.60
2018-02-22T06:42:26.151Z,47.70
2018-02-22T06:44:55.167Z,47.60
2018-02-22T06:47:23.527Z,47.50
2018-02-22T06:49:52.879Z,47.60
2018-02-22T06:52:21.270Z,47.50
2018-02-22T06:54:49.515Z,47.50
2018-02-22T06:57:18.618Z,47.60
2018-02-22T06:59:46.876Z,47.50
2018-02-22T07:02:15.131Z,47.30
2018-02-22T07:04:43.410Z,47.30
2018-02-22T07:07:12.427Z,47.00
2018-02-22T07:09:40.682Z,46.90
2018-02-22T07:12:08.959Z,46.90
2018-02-22T07:14:37.211Z,47.00
2018-02-22T07:17:05.467Z,47.30
2018-02-22T07:19:34.038Z,46.80
2018-02-22T07:22:02.526Z,47.20
2018-02-22T07:24:30.771Z,47.10
2018-02-22T07:26:59.080Z,47.20
2018-02-22T07:29:27.315Z,46.90
2018-02-22T07:31:55.572Z,46.90
2018-02-22T07:34:24.628Z,47.40
2018-02-22T07:36:52.875Z,47.20
2018-02-22T07:39:21.293Z,47.10
2018-02-22T07:41:49.755Z,46.70
2018-02-22T07:44:18.010Z,46.40
2018-02-22T07:46:46.271Z,46.50
2018-02-22T07:49:14.550Z,46.50
2018-02-22T07:51:42.800Z,46.40
2018-02-22T07:54:11.081Z,45.90
2018-02-22T07:56:39.361Z,45.40
2018-02-22T07:59:08.675Z,45.10
2018-02-22T08:01:37.687Z,45.20
2018-02-22T08:04:06.107Z,45.10
2018-02-22T08:06:34.342Z,45.10
2018-02-22T08:09:02.591Z,45.00
2018-02-22T08:11:30.867Z,44.70
2018-02-22T08:13:59.886Z,44.20
2018-02-22T08:16:28.139Z,44.10
2018-02-22T08:18:56.414Z,44.10
2018-02-22T08:21:24.666Z,44.20
2018-02-22T08:23:53.051Z,44.00
2018-02-22T08:26:21.495Z,44.10
2018-02-22T08:28:49.739Z,44.00
2018-02-22T08:31:17.983Z,44.10
2018-02-22T08:33:47.028Z,43.90
2018-02-22T08:36:15.279Z,43.80
2018-02-22T08:38:44.290Z,43.00
2018-02-22T08:41:12.566Z,43.00
2018-02-22T08:43:40.810Z,43.00
2018-02-22T08:46:09.057Z,43.20
2018-02-22T08:48:37.527Z,43.60
2018-02-22T08:51:05.774Z,42.70
2018-02-22T08:53:34.023Z,42.30
2018-02-22T08:56:03.067Z,41.90
2018-02-22T08:58:31.309Z,41.80
2018-02-22T09:01:00.922Z,41.90
2018-02-22T09:03:29.960Z,41.70
2018-02-22T09:05:58.203Z,41.60
2018-02-22T09:08:26.635Z,41.50
2018-02-22T09:10:55.086Z,41.00
2018-02-22T09:13:23.331Z,40.60
2018-02-22T09:15:51.575Z,40.60
2018-02-22T09:18:19.847Z,40.80
2018-02-22T09:20:48.095Z,41.10
2018-02-22T09:23:16.334Z,40.90
2018-02-22T09:25:45.481Z,40.10
2018-02-22T09:28:13.707Z,40.10
2018-02-22T09:30:42.718Z,40.00
2018-02-22T09:33:11.371Z,39.90
2018-02-22T09:35:39.615Z,40.00
2018-02-22T09:38:07.855Z,40.10
2018-02-22T09:40:36.132Z,40.10
2018-02-22T09:43:04.370Z,40.50
2018-02-22T09:45:32.616Z,41.00
2018-02-22T09:48:00.881Z,40.90
2018-02-22T09:50:29.130Z,40.40
2018-02-22T09:52:57.382Z,39.50
2018-02-22T09:55:25.706Z,39.40
2018-02-22T09:57:53.953Z,39.70
2018-02-22T10:00:22.954Z,40.20
2018-02-22T10:02:51.443Z,40.10
2018-02-22T10:05:19.875Z,38.80
2018-02-22T10:07:48.099Z,39.60
2018-02-22T10:10:16.363Z,36.40
2018-02-22T10:12:44.619Z,36.80
2018-02-22T10:15:12.861Z,36.00
2018-02-22T10:17:41.644Z,35.50
2018-02-22T10:20:09.891Z,35.50
2018-02-22T10:22:38.131Z,35.40
2018-02-22T10:25:06.398Z,35.20
2018-02-22T10:27:34.648Z,34.70
2018-02-22T10:30:02.891Z,35.00
2018-02-22T10:32:31.156Z,33.20
2018-02-22T10:34:59.399Z,32.40
2018-02-22T10:37:27.642Z,30.90
2018-02-22T10:39:56.126Z,31.80
2018-02-22T10:42:24.365Z,32.40
2018-02-22T10:44:52.609Z,31.20
2018-02-22T10:47:20.883Z,31.30
2018-02-22T10:49:49.135Z,32.00
2018-02-22T10:52:17.377Z,31.70
2018-02-22T10:54:46.407Z,33.40
2018-02-22T10:57:14.647Z,33.40
2018-02-22T10:59:42.900Z,32.30
2018-02-22T11:02:17.143Z,30.30
2018-02-22T11:04:46.238Z,29.90
2018-02-22T11:07:14.491Z,29.00
2018-02-22T11:09:43.530Z,28.50
2018-02-22T11:12:11.780Z,28.50
2018-02-22T11:14:41.958Z,27.90
2018-02-22T11:17:10.231Z,27.90
2018-02-22T11:19:38.474Z,27.60
2018-02-22T11:22:06.722Z,28.40
2018-02-22T11:24:35.187Z,27.40
2018-02-22T11:27:03.442Z,27.10
2018-02-22T11:29:31.699Z,27.10
2018-02-22T11:31:59.975Z,27.00
2018-02-22T11:34:28.247Z,26.40
2018-02-22T11:36:56.493Z,25.40
2018-02-22T11:39:25.527Z,25.90
2018-02-22T11:41:53.770Z,25.90
2018-02-22T11:44:22.023Z,26.60
2018-02-22T11:46:50.687Z,26.50
2018-02-22T11:49:18.945Z,26.80
2018-02-22T11:51:47.190Z,26.40
2018-02-22T11:54:16.230Z,26.30
2018-02-22T11:56:44.503Z,26.30
2018-02-22T11:59:12.750Z,25.80
2018-02-22T12:01:41.024Z,25.60
2018-02-22T12:04:10.035Z,26.10
2018-02-22T12:06:38.574Z,26.10
2018-02-22T12:09:07.917Z,26.80
2018-02-22T12:11:36.168Z,26.70
2018-02-22T12:14:04.418Z,25.20
2018-02-22T12:16:32.706Z,24.10
2018-02-22T12:19:04.932Z,25.30
2018-02-22T12:21:33.184Z,25.20
2018-02-22T12:24:01.669Z,24.60
2018-02-22T12:26:29.907Z,24.60
2018-02-22T12:28:59.090Z,24.50
2018-02-22T12:31:27.342Z,24.50
2018-02-22T12:33:55.617Z,24.70
2018-02-22T12:36:24.083Z,25.40
2018-02-22T12:38:54.534Z,25.90
2018-02-22T12:41:26.939Z,25.80
2018-02-22T12:43:55.990Z,24.00
2018-02-22T12:46:24.213Z,24.00
2018-02-22T12:48:52.730Z,23.90
2018-02-22T12:51:21.034Z,22.60
2018-02-22T12:53:49.418Z,23.90
2018-02-22T12:56:17.857Z,24.00
2018-02-22T12:58:46.210Z,25.10
2018-02-22T13:01:15.230Z,22.80
2018-02-22T13:06:18.076Z,22.60
2018-02-22T13:08:46.533Z,23.20
2018-02-22T13:11:14.835Z,23.50
2018-02-22T13:13:43.094Z,23.80
2018-02-22T13:16:11.368Z,23.00
2018-02-22T13:18:40.595Z,23.90
2018-02-22T13:21:08.851Z,22.60
2018-02-22T13:23:37.171Z,24.00
2018-02-22T13:26:07.566Z,23.60
2018-02-22T13:28:35.952Z,23.20
2018-02-22T13:31:04.420Z,24.20
2018-02-22T13:33:44.443Z,24.40
2018-02-22T13:36:12.715Z,23.50
2018-02-22T13:39:02.727Z,23.20
2018-02-22T13:41:30.993Z,22.10
2018-02-22T13:44:12.817Z,23.30
2018-02-22T13:46:42.291Z,22.50
2018-02-22T13:49:22.586Z,23.00
2018-02-22T13:51:50.855Z,23.00
2018-02-22T13:54:19.368Z,22.40
2018-02-22T13:57:00.466Z,24.50
2018-02-22T13:59:30.072Z,22.80
2018-02-22T14:02:11.220Z,22.90
2018-02-22T14:04:40.507Z,21.70
2018-02-22T14:07:10.600Z,23.90
2018-02-22T14:09:39.119Z,23.00
2018-02-22T14:12:08.135Z,23.50
2018-02-22T14:14:36.727Z,23.10
2018-02-22T14:17:05.705Z,22.20
2018-02-22T14:19:34.654Z,23.50
2018-02-22T14:22:02.974Z,23.20
2018-02-22T14:24:32.214Z,22.60
2018-02-22T14:27:00.538Z,22.60
2018-02-22T14:29:29.066Z,22.90
2018-02-22T14:31:59.144Z,23.60
2018-02-22T14:34:27.951Z,23.90
2018-02-22T14:36:56.208Z,23.70
2018-02-22T14:39:24.613Z,22.50
2018-02-22T14:41:55.106Z,23.10
2018-02-22T14:44:23.483Z,23.50
2018-02-22T14:46:51.939Z,23.00
2018-02-22T14:49:22.395Z,23.50
2018-02-22T14:51:50.648Z,22.80
2018-02-22T14:54:19.338Z,23.80
2018-02-22T14:56:47.584Z,23.50
2018-02-22T14:59:17.427Z,23.80
2018-02-22T15:01:46.682Z,24.10
2018-02-22T15:04:15.056Z,23.70
2018-02-22T15:06:43.302Z,23.50
2018-02-22T15:09:12.496Z,22.40
2018-02-22T15:11:40.874Z,23.10
2018-02-22T15:14:09.127Z,23.30
2018-02-22T15:16:37.405Z,23.30
2018-02-22T15:19:05.902Z,23.50
2018-02-22T15:21:35.675Z,23.50
2018-02-22T15:24:04.960Z,23.50
2018-02-22T15:26:33.298Z,23.80
2018-02-22T15:29:01.691Z,23.70
2018-02-22T15:31:31.350Z,24.50
2018-02-22T15:33:59.798Z,24.00
2018-02-22T15:36:28.055Z,23.10
2018-02-22T15:38:56.454Z,23.50
2018-02-22T15:41:25.475Z,25.00
2018-02-22T15:43:53.735Z,24.90
2018-02-22T15:46:22.016Z,25.20
2018-02-22T15:48:50.266Z,25.50
2018-02-22T15:51:19.326Z,26.20
2018-02-22T15:53:48.662Z,26.20
2018-02-22T15:56:17.839Z,26.70
2018-02-22T15:58:46.411Z,26.80
2018-02-22T16:01:14.988Z,26.90
2018-02-22T16:03:45.438Z,27.20
2018-02-22T16:06:13.822Z,27.70
2018-02-22T16:08:42.218Z,27.60
2018-02-22T16:11:12.607Z,27.70
2018-02-22T16:13:40.843Z,27.60
2018-02-22T16:16:09.374Z,28.60
2018-02-22T16:18:37.624Z,28.50
2018-02-22T16:21:06.243Z,28.70
2018-02-22T16:23:35.569Z,29.10
2018-02-22T16:26:04.843Z,29.50
2018-02-22T16:28:33.217Z,29.40
2018-02-22T16:31:01.627Z,29.80
2018-02-22T16:33:32.734Z,30.00
2018-02-22T16:36:02.555Z,29.90
2018-02-22T16:38:30.843Z,30.00
2018-02-22T16:40:59.161Z,30.30
2018-02-22T16:43:27.555Z,30.20
2018-02-22T16:45:56.825Z,30.30
2018-02-22T16:48:26.621Z,30.40
2018-02-22T16:50:55.110Z,30.40
2018-02-22T16:53:24.136Z,31.20
2018-02-22T16:55:54.611Z,31.00
2018-02-22T16:58:23.362Z,30.60
2018-02-22T17:00:51.666Z,30.80
2018-02-22T17:03:20.046Z,30.80
2018-02-22T17:05:48.482Z,31.80
2018-02-22T17:08:17.478Z,31.90
2018-02-22T17:10:46.308Z,31.80
2018-02-22T17:13:14.603Z,32.00
2018-02-22T17:15:42.867Z,32.10
2018-02-22T17:18:11.248Z,32.30
2018-02-22T17:20:39.730Z,32.10
2018-02-22T17:23:08.034Z,32.40
2018-02-22T17:25:36.551Z,32.90
2018-02-22T17:28:10.402Z,32.90
2018-02-22T17:30:44.420Z,33.00
2018-02-22T17:33:12.923Z,32.90
2018-02-22T17:35:43.694Z,33.10
2018-02-22T17:38:12.855Z,33.00
2018-02-22T17:40:41.189Z,33.10
2018-02-22T17:43:11.635Z,33.60
2018-02-22T17:45:43.246Z,34.30
2018-02-22T17:48:12.702Z,33.40
2018-02-22T17:50:41.067Z,33.80
2018-02-22T17:53:09.483Z,33.80
2018-02-22T17:55:39.850Z,34.10
2018-02-22T17:58:09.269Z,34.10
2018-02-22T18:00:39.599Z,33.70
2018-02-22T18:03:07.878Z,33.70
2018-02-22T18:05:36.255Z,34.40
2018-02-22T18:08:04.831Z,34.50
2018-02-22T18:10:33.076Z,34.50
2018-02-22T18:13:01.521Z,34.00
2018-02-22T18:15:29.938Z,34.30
2018-02-22T18:17:59.387Z,34.90
2018-02-22T18:20:27.767Z,33.90
2018-02-22T18:22:56.242Z,34.60
2018-02-22T18:25:24.597Z,34.70
2018-02-22T18:27:52.895Z,34.60
2018-02-22T18:30:21.312Z,34.50
2018-02-22T18:32:51.509Z,34.50
2018-02-22T18:35:19.877Z,34.50
2018-02-22T18:37:58.835Z,34.70
2018-02-22T18:40:33.667Z,34.40
2018-02-22T18:46:05.031Z,34.40
2018-02-22T18:48:33.415Z,34.80
2018-02-22T18:51:02.435Z,35.00
2018-02-22T18:53:30.746Z,34.90
2018-02-22T18:55:59.522Z,35.00
2018-02-22T18:58:27.831Z,35.80
2018-02-22T19:00:56.205Z,35.20
2018-02-22T19:03:24.606Z,35.00
2018-02-22T19:05:52.964Z,35.00
2018-02-22T19:08:25.371Z,35.00
2018-02-22T19:10:54.394Z,35.60
2018-02-22T19:13:23.318Z,35.60
2018-02-22T19:15:52.088Z,35.30
2018-02-22T19:18:20.390Z,35.40
2018-02-22T19:20:48.771Z,35.00
2018-02-22T19:23:17.159Z,34.90
2018-02-22T19:25:45.832Z,35.50
2018-02-22T19:28:14.211Z,35.20
2018-02-22T19:30:42.623Z,35.30
2018-02-22T19:33:11.639Z,35.00
2018-02-22T19:35:41.081Z,34.90
2018-02-22T19:38:10.992Z,35.60
2018-02-22T19:40:39.221Z,35.60
2018-02-22T19:43:07.555Z,36.00
2018-02-22T19:45:39.654Z,35.80
2018-02-22T19:48:09.847Z,35.60
2018-02-22T19:50:38.274Z,35.60
2018-02-22T19:53:06.642Z,35.90
2018-02-22T19:55:39.594Z,35.30
2018-02-22T19:58:08.088Z,35.20
2018-02-22T20:00:36.354Z,35.70
2018-02-22T20:03:04.737Z,36.20
2018-02-22T20:05:34.051Z,35.80
2018-02-22T20:08:02.415Z,35.60
2018-02-22T20:10:30.786Z,35.60
2018-02-22T20:12:59.251Z,36.00
2018-02-22T20:15:27.554Z,36.00
2018-02-22T20:18:00.947Z,36.30
2018-02-22T20:20:30.214Z,36.00
2018-02-22T20:22:58.570Z,35.70
2018-02-22T20:25:31.000Z,36.00
2018-02-22T20:27:59.587Z,36.50
2018-02-22T20:30:29.803Z,36.00
2018-02-22T20:32:58.296Z,36.30
2018-02-22T20:35:26.603Z,36.30
2018-02-22T20:37:55.666Z,36.50
2018-02-22T20:40:24.054Z,36.40
2018-02-22T20:42:52.319Z,36.20
2018-02-22T20:45:20.702Z,36.70
2018-02-22T20:47:53.148Z,36.50
2018-02-22T20:50:21.751Z,36.80
2018-02-22T20:52:55.651Z,36.40
2018-02-22T20:55:44.231Z,37.10
2018-02-22T20:58:13.195Z,36.80
2018-02-22T21:00:41.424Z,36.40
2018-02-22T21:03:15.732Z,36.80
2018-02-22T21:05:43.975Z,36.80
2018-02-22T21:08:12.358Z,37.10
2018-02-22T21:10:40.765Z,37.20
2018-02-22T21:13:09.778Z,37.40
2018-02-22T21:15:38.110Z,37.30
2018-02-22T21:18:11.183Z,37.60
2018-02-22T21:20:40.430Z,36.90
2018-02-22T21:23:08.770Z,37.20
2018-02-22T21:25:37.191Z,37.00
2018-02-22T21:28:06.203Z,37.60
2018-02-22T21:30:34.467Z,37.50
2018-02-22T21:33:02.927Z,37.50
2018-02-22T21:35:31.939Z,37.90
2018-02-22T21:38:03.346Z,37.80
2018-02-22T21:40:36.718Z,37.70
2018-02-22T21:43:04.961Z,37.30
2018-02-22T21:45:33.392Z,38.00
2018-02-22T21:48:01.668Z,38.00
2018-02-22T21:50:29.905Z,37.70
2018-02-22T21:52:58.155Z,37.10
2018-02-22T21:55:26.635Z,37.30
2018-02-22T21:57:55.654Z,38.10
2018-02-22T22:00:23.984Z,38.00
2018-02-22T22:02:52.423Z,37.60
2018-02-22T22:05:20.783Z,37.90
2018-02-22T22:07:51.202Z,37.50
2018-02-22T22:10:19.470Z,37.50
2018-02-22T22:12:47.715Z,38.30
2018-02-22T22:15:15.950Z,38.00
2018-02-22T22:17:44.226Z,38.20
2018-02-22T22:20:12.550Z,37.60
2018-02-22T22:22:40.802Z,37.70
2018-02-22T22:25:09.118Z,37.90
2018-02-22T22:27:37.424Z,38.10
2018-02-22T22:30:05.637Z,38.30
2018-02-22T22:32:33.915Z,38.60
2018-02-22T22:35:02.520Z,38.40
2018-02-22T22:37:30.769Z,38.10
2018-02-22T22:40:00.235Z,38.40
2018-02-22T22:42:29.311Z,38.00
2018-02-22T22:44:58.326Z,37.90
2018-02-22T22:47:27.069Z,37.80
2018-02-22T22:49:55.310Z,38.70
2018-02-22T22:52:23.555Z,38.40
2018-02-22T22:54:52.590Z,38.70
2018-02-22T22:57:20.833Z,38.60
2018-02-22T22:59:49.079Z,38.30
2018-02-22T23:02:18.405Z,38.60
2018-02-22T23:04:47.438Z,38.60
2018-02-22T23:07:15.678Z,38.50
2018-02-22T23:09:44.017Z,38.40
2018-02-22T23:12:12.263Z,38.30
2018-02-22T23:14:40.511Z,38.40
2018-02-22T23:17:09.334Z,38.90
2018-02-22T23:19:37.575Z,39.20
2018-02-22T23:22:05.823Z,39.30
2018-02-22T23:24:34.227Z,39.00
2018-02-22T23:27:02.466Z,38.90
2018-02-22T23:29:30.712Z,39.00
2018-02-22T23:31:59.327Z,39.30
2018-02-22T23:34:27.571Z,38.80
2018-02-22T23:36:55.823Z,38.50
2018-02-22T23:39:24.098Z,38.90
2018-02-22T23:42:08.894Z,38.90
2018-02-22T23:44:37.162Z,38.90
2018-02-22T23:47:05.424Z,39.30
2018-02-22T23:49:33.659Z,39.20
2018-02-22T23:52:02.322Z,39.50
2018-02-22T23:54:30.582Z,39.60
2018-02-22T23:56:58.834Z,39.40
2018-02-22T23:59:27.114Z,39.40
